createdAt,value
2019-05-13T00:00:12.418Z,92.5
2019-05-13T00:01:26.651Z,93.2
2019-05-13T00:02:40.691Z,94
2019-05-13T00:03:54.929Z,93.9
2019-05-13T00:05:09.154Z,93.9
2019-05-13T00:06:23.368Z,95.4
2019-05-13T00:07:37.837Z,95.5
2019-05-13T00:08:51.937Z,95.4
2019-05-13T00:10:06.580Z,94.9
2019-05-13T00:11:20.287Z,95.1
2019-05-13T00:12:34.513Z,95.1
2019-05-13T00:13:48.737Z,95.5
2019-05-13T00:15:02.970Z,95.5
2019-05-13T00:16:17.261Z,95.5
2019-05-13T00:17:31.418Z,95.4
2019-05-13T00:18:49.091Z,95.3
2019-05-13T00:19:59.901Z,94.7
2019-05-13T00:21:14.138Z,95.3
2019-05-13T00:22:28.599Z,94.3
2019-05-13T00:23:42.676Z,94
2019-05-13T00:24:56.876Z,95.8
2019-05-13T00:26:11.131Z,95.6
2019-05-13T00:27:25.352Z,95.4
2019-05-13T00:28:39.533Z,96
2019-05-13T00:29:53.739Z,96.9
2019-05-13T00:31:08.015Z,96.2
2019-05-13T00:32:22.226Z,96.2
2019-05-13T00:33:36.501Z,96.2
2019-05-13T00:34:50.707Z,96.5
2019-05-13T00:36:04.930Z,97
2019-05-13T00:37:19.156Z,97.3
2019-05-13T00:38:33.378Z,97.3
2019-05-13T00:39:48.783Z,97.5
2019-05-13T00:41:07.933Z,97.7
2019-05-13T00:42:16.169Z,97.1
2019-05-13T00:43:30.322Z,97.8
2019-05-13T00:44:45.451Z,98.1
2019-05-13T00:45:58.800Z,97.8
2019-05-13T00:47:13.038Z,97.7
2019-05-13T00:48:27.280Z,97.5
2019-05-13T00:49:41.512Z,97.8
2019-05-13T00:50:55.860Z,98
2019-05-13T00:52:10.088Z,97.8
2019-05-13T00:53:24.302Z,98.1
2019-05-13T00:54:38.467Z,98.2
2019-05-13T00:55:52.836Z,98.1
2019-05-13T00:57:07.144Z,98.8
2019-05-13T00:58:21.274Z,98.7
2019-05-13T00:59:35.545Z,99.1
2019-05-13T01:00:49.657Z,98.8
2019-05-13T01:02:06.966Z,98.8
2019-05-13T01:03:18.144Z,99.6
2019-05-13T01:04:32.441Z,99.3
2019-05-13T01:05:46.748Z,99.2
2019-05-13T01:07:00.986Z,98.5
2019-05-13T01:08:15.173Z,98.8
2019-05-13T01:09:29.361Z,98.7
2019-05-13T01:10:44.950Z,98.2
2019-05-13T01:11:57.829Z,98.1
2019-05-13T01:13:12.101Z,97.7
2019-05-13T01:14:26.337Z,98
2019-05-13T01:15:40.646Z,97.8
2019-05-13T01:16:54.883Z,97.6
2019-05-13T01:18:09.027Z,98.1
2019-05-13T01:19:23.305Z,97.8
2019-05-13T01:20:37.583Z,98.3
2019-05-13T01:21:52.756Z,98
2019-05-13T01:23:06.006Z,97.7
2019-05-13T01:24:20.399Z,97.7
2019-05-13T01:25:34.506Z,97.7
2019-05-13T01:26:48.970Z,97.9
2019-05-13T01:28:02.996Z,98
2019-05-13T01:29:17.329Z,98
2019-05-13T01:30:31.437Z,97.9
2019-05-13T01:31:45.690Z,98.6
2019-05-13T01:32:59.984Z,98.6
2019-05-13T01:34:14.151Z,98.7
2019-05-13T01:35:28.761Z,98.9
2019-05-13T01:36:42.837Z,99.1
2019-05-13T01:37:56.863Z,99
2019-05-13T01:39:11.117Z,99.2
2019-05-13T01:40:25.349Z,99.1
2019-05-13T01:41:39.623Z,99.5
2019-05-13T01:42:53.906Z,99.5
2019-05-13T01:44:08.096Z,99.2
2019-05-13T01:45:22.362Z,99.3
2019-05-13T01:46:36.712Z,99.5
2019-05-13T01:47:50.938Z,99.4
2019-05-13T01:49:05.029Z,99.4
2019-05-13T01:50:19.234Z,99.4
2019-05-13T01:51:33.626Z,99.4
2019-05-13T01:52:48.047Z,99.7
2019-05-13T01:54:01.954Z,99.4
2019-05-13T01:55:16.202Z,99.4
2019-05-13T01:56:30.415Z,99.7
2019-05-13T01:57:44.650Z,99.4
2019-05-13T01:58:59.129Z,99.8
2019-05-13T02:00:13.163Z,99.8
2019-05-13T02:01:27.367Z,100
2019-05-13T02:02:41.594Z,100
2019-05-13T02:03:55.835Z,99.6
2019-05-13T02:05:10.082Z,99.9
2019-05-13T02:06:24.448Z,99.9
2019-05-13T02:07:38.648Z,100
2019-05-13T02:08:52.865Z,100
2019-05-13T02:10:09.478Z,100
2019-05-13T02:11:21.276Z,100
2019-05-13T02:12:35.511Z,100
2019-05-13T02:13:49.757Z,100
2019-05-13T02:15:04.000Z,100
2019-05-13T02:16:18.212Z,100
2019-05-13T02:17:32.474Z,100
2019-05-13T02:18:46.764Z,100
2019-05-13T02:20:00.928Z,100
2019-05-13T02:21:15.287Z,100
2019-05-13T02:22:29.415Z,100
2019-05-13T02:23:43.684Z,100
2019-05-13T02:24:57.946Z,100
2019-05-13T02:26:12.099Z,100
2019-05-13T02:27:26.355Z,100
2019-05-13T02:28:40.561Z,100
2019-05-13T02:29:54.858Z,100
2019-05-13T02:31:09.081Z,100
2019-05-13T02:32:23.302Z,100
2019-05-13T02:33:37.623Z,100
2019-05-13T02:34:51.892Z,100
2019-05-13T02:36:06.025Z,100
2019-05-13T02:37:20.249Z,100
2019-05-13T02:38:34.463Z,100
2019-05-13T02:39:48.938Z,100
2019-05-13T02:41:03.002Z,100
2019-05-13T02:42:17.281Z,100
2019-05-13T02:43:31.410Z,100
2019-05-13T02:44:45.639Z,100
2019-05-13T02:45:59.875Z,100
2019-05-13T02:47:14.120Z,100
2019-05-13T02:48:28.357Z,100
2019-05-13T02:49:42.835Z,100
2019-05-13T02:50:59.463Z,100
2019-05-13T02:52:11.228Z,100
2019-05-13T02:53:25.461Z,100
2019-05-13T02:54:39.592Z,100
2019-05-13T02:55:53.826Z,100
2019-05-13T02:57:08.136Z,100
2019-05-13T02:58:22.384Z,100
2019-05-13T02:59:36.606Z,100
2019-05-13T03:00:50.887Z,100
2019-05-13T03:02:05.192Z,100
2019-05-13T03:03:19.392Z,100
2019-05-13T03:04:33.496Z,100
2019-05-13T03:05:47.760Z,100
2019-05-13T03:07:02.081Z,100
2019-05-13T03:08:16.393Z,100
2019-05-13T03:09:30.511Z,100
2019-05-13T03:10:48.579Z,100
2019-05-13T03:12:02.031Z,100
2019-05-13T03:13:13.165Z,100
2019-05-13T03:14:27.449Z,100
2019-05-13T03:15:41.698Z,100
2019-05-13T03:16:55.921Z,100
2019-05-13T03:18:10.124Z,100
2019-05-13T03:19:24.357Z,100
2019-05-13T03:20:38.594Z,100
2019-05-13T03:21:52.968Z,100
2019-05-13T03:23:07.198Z,100
2019-05-13T03:24:21.319Z,100
2019-05-13T03:25:36.241Z,100
2019-05-13T03:26:52.588Z,100
2019-05-13T03:28:04.082Z,100
2019-05-13T03:29:18.257Z,100
2019-05-13T03:30:32.480Z,100
2019-05-13T03:31:46.711Z,100
2019-05-13T03:33:00.959Z,100
2019-05-13T03:34:15.253Z,100
2019-05-13T03:35:29.445Z,100
2019-05-13T03:36:43.669Z,100
2019-05-13T03:37:57.918Z,100
2019-05-13T03:39:12.762Z,100
2019-05-13T03:40:26.401Z,100
2019-05-13T03:41:40.619Z,100
2019-05-13T03:42:57.932Z,100
2019-05-13T03:44:09.160Z,100
2019-05-13T03:45:23.327Z,100
2019-05-13T03:46:37.596Z,100
2019-05-13T03:47:51.855Z,100
2019-05-13T03:49:06.058Z,100
2019-05-13T03:50:20.354Z,100
2019-05-13T03:51:34.736Z,100
2019-05-13T03:52:48.833Z,100
2019-05-13T03:54:02.991Z,100
2019-05-13T03:55:17.231Z,100
2019-05-13T03:56:31.493Z,100
2019-05-13T03:57:45.696Z,100
2019-05-13T03:59:00.038Z,100
2019-05-13T04:00:14.151Z,100
2019-05-13T04:01:28.410Z,100
2019-05-13T04:02:42.876Z,100
2019-05-13T04:03:56.883Z,100
2019-05-13T04:05:11.215Z,100
2019-05-13T04:06:25.582Z,100
2019-05-13T04:07:39.665Z,100
2019-05-13T04:08:53.831Z,100
2019-05-13T04:11:22.313Z,100
2019-05-13T04:12:36.837Z,100
2019-05-13T04:13:50.771Z,100
2019-05-13T04:15:05.041Z,100
2019-05-13T04:16:19.254Z,100
2019-05-13T04:17:33.498Z,100
2019-05-13T04:18:47.893Z,100
2019-05-13T04:20:02.129Z,100
2019-05-13T04:21:16.206Z,100
2019-05-13T04:22:30.533Z,100
2019-05-13T04:23:44.810Z,100
2019-05-13T04:24:59.010Z,100
2019-05-13T04:26:13.189Z,100
2019-05-13T04:27:27.428Z,100
2019-05-13T04:28:41.646Z,100
2019-05-13T04:29:55.980Z,100
2019-05-13T04:31:10.113Z,100
2019-05-13T04:32:24.457Z,100
2019-05-13T04:33:38.587Z,100
2019-05-13T04:34:52.986Z,100
2019-05-13T04:36:07.114Z,100
2019-05-13T04:37:21.410Z,100
2019-05-13T04:38:35.837Z,100
2019-05-13T04:39:50.013Z,100
2019-05-13T04:41:04.193Z,100
2019-05-13T04:42:18.421Z,100
2019-05-13T04:43:32.468Z,100
2019-05-13T04:44:46.776Z,100
2019-05-13T04:46:00.900Z,100
2019-05-13T04:47:15.142Z,100
2019-05-13T04:48:29.377Z,99.3
2019-05-13T04:49:43.600Z,98.9
2019-05-13T04:50:59.068Z,97.1
2019-05-13T04:52:12.000Z,96.1
2019-05-13T04:53:26.293Z,95
2019-05-13T04:54:40.426Z,93.6
2019-05-13T04:55:54.696Z,91.6
2019-05-13T04:57:09.043Z,90.8
2019-05-13T04:58:23.066Z,91
2019-05-13T04:59:37.414Z,91.5
2019-05-13T05:00:51.666Z,90.8
2019-05-13T05:02:05.652Z,91.3
2019-05-13T05:03:19.865Z,91.8
2019-05-13T05:04:34.183Z,92
2019-05-13T05:05:48.331Z,91.7
2019-05-13T05:07:02.476Z,91.8
2019-05-13T05:08:16.762Z,91.5
2019-05-13T05:09:30.981Z,91.3
2019-05-13T05:10:45.481Z,91.3
2019-05-13T05:12:01.979Z,89
2019-05-13T05:13:13.487Z,86.2
2019-05-13T05:14:27.758Z,85
2019-05-13T05:15:41.909Z,85.4
2019-05-13T05:16:56.143Z,84.5
2019-05-13T05:18:10.402Z,83.2
2019-05-13T05:19:24.461Z,83.2
2019-05-13T05:20:38.650Z,83.7
2019-05-13T05:21:53.002Z,83.3
2019-05-13T05:23:07.030Z,84.1
2019-05-13T05:24:21.199Z,82.7
2019-05-13T05:25:35.486Z,83.3
2019-05-13T05:26:49.635Z,83.7
2019-05-13T05:28:03.841Z,84
2019-05-13T05:29:17.940Z,83.4
2019-05-13T05:30:32.167Z,83.5
2019-05-13T05:31:46.300Z,81.7
2019-05-13T05:33:00.477Z,82.6
2019-05-13T05:34:14.670Z,82.9
2019-05-13T05:35:29.131Z,83.2
2019-05-13T05:36:43.034Z,82
2019-05-13T05:37:57.199Z,82
2019-05-13T05:39:11.458Z,81.7
2019-05-13T05:40:25.609Z,80.1
2019-05-13T05:41:39.863Z,77.1
2019-05-13T05:42:53.923Z,74.5
2019-05-13T05:44:08.171Z,74.7
2019-05-13T05:45:22.797Z,76.4
2019-05-13T05:46:36.506Z,72.7
2019-05-13T05:47:50.624Z,72.1
2019-05-13T05:49:04.750Z,73.4
2019-05-13T05:50:20.810Z,71.8
2019-05-13T05:51:33.058Z,72.8
2019-05-13T05:54:01.589Z,71
2019-05-13T05:55:15.619Z,71.1
2019-05-13T05:56:29.774Z,69.1
2019-05-13T05:57:43.859Z,71
2019-05-13T05:58:58.690Z,69.6
2019-05-13T06:00:12.156Z,69
2019-05-13T06:01:26.304Z,66.6
2019-05-13T06:02:40.415Z,64.9
2019-05-13T06:03:54.698Z,64.8
2019-05-13T06:05:08.645Z,65.3
2019-05-13T06:06:24.916Z,65.8
2019-05-13T06:07:36.990Z,64.5
2019-05-13T06:08:51.051Z,61.7
2019-05-13T06:10:05.331Z,65
2019-05-13T06:11:19.438Z,66
2019-05-13T06:12:33.469Z,67.1
2019-05-13T06:13:47.604Z,65.9
2019-05-13T06:15:01.742Z,66.1
2019-05-13T06:16:15.934Z,64
2019-05-13T06:17:29.986Z,67.2
2019-05-13T06:18:44.118Z,67.7
2019-05-13T06:19:58.276Z,65.6
2019-05-13T06:21:12.468Z,66.9
2019-05-13T06:22:26.540Z,64.9
2019-05-13T06:23:40.693Z,62
2019-05-13T06:24:54.813Z,62.6
2019-05-13T06:26:09.010Z,64.5
2019-05-13T06:27:23.169Z,63
2019-05-13T06:28:37.187Z,63.4
2019-05-13T06:29:51.326Z,63.9
2019-05-13T06:31:07.300Z,63.8
2019-05-13T06:32:19.596Z,63.9
2019-05-13T06:33:33.782Z,63
2019-05-13T06:34:47.825Z,61.6
2019-05-13T06:36:01.951Z,62.8
2019-05-13T06:37:16.069Z,63.6
2019-05-13T06:38:30.198Z,63
2019-05-13T06:39:44.390Z,65
2019-05-13T06:40:58.536Z,66.4
2019-05-13T06:43:26.701Z,60.8
2019-05-13T06:44:40.849Z,65.2
2019-05-13T06:45:54.983Z,64.8
2019-05-13T06:47:10.188Z,66.1
2019-05-13T06:49:37.695Z,66.1
2019-05-13T06:50:52.071Z,64.8
2019-05-13T06:52:05.553Z,63.1
2019-05-13T06:53:19.768Z,61.8
2019-05-13T06:54:33.793Z,63.3
2019-05-13T06:55:47.898Z,60.3
2019-05-13T06:57:02.159Z,62.5
2019-05-13T06:58:16.132Z,62.5
2019-05-13T06:59:30.489Z,63.6
2019-05-13T07:00:44.515Z,62.4
2019-05-13T07:01:58.607Z,63.2
2019-05-13T07:03:12.737Z,63.9
2019-05-13T07:04:26.774Z,62.5
2019-05-13T07:05:40.882Z,61.7
2019-05-13T07:06:54.997Z,60.6
2019-05-13T07:08:09.191Z,63
2019-05-13T07:09:23.347Z,61.4
2019-05-13T07:10:37.776Z,58.6
2019-05-13T07:11:51.558Z,60.7
2019-05-13T07:13:05.571Z,60.7
2019-05-13T07:14:19.777Z,57.3
2019-05-13T07:15:33.806Z,57.7
2019-05-13T07:16:47.962Z,57.8
2019-05-13T07:19:16.215Z,55.8
2019-05-13T07:20:30.252Z,56.8
2019-05-13T07:21:44.468Z,58.6
2019-05-13T07:22:58.492Z,58.5
2019-05-13T07:24:12.601Z,59.9
2019-05-13T07:25:26.728Z,58.6
2019-05-13T07:26:40.830Z,60.5
2019-05-13T07:27:54.924Z,60.9
2019-05-13T07:29:09.149Z,58.3
2019-05-13T07:30:23.168Z,55.5
2019-05-13T07:31:37.280Z,55
2019-05-13T07:32:51.521Z,56
2019-05-13T07:34:05.543Z,56.1
2019-05-13T07:35:19.669Z,55.9
2019-05-13T07:36:33.683Z,57.7
2019-05-13T07:37:47.828Z,55.2
2019-05-13T07:39:01.892Z,53.6
2019-05-13T07:40:16.022Z,54.6
2019-05-13T07:41:30.129Z,51.6
2019-05-13T07:42:48.420Z,50.9
2019-05-13T07:43:58.334Z,50.8
2019-05-13T07:45:12.422Z,50.6
2019-05-13T07:46:26.503Z,49.3
2019-05-13T07:47:40.781Z,52
2019-05-13T07:48:54.751Z,52
2019-05-13T07:50:08.791Z,51.3
2019-05-13T07:51:23.002Z,52.4
2019-05-13T07:52:37.014Z,53.2
2019-05-13T07:53:51.312Z,53.9
2019-05-13T07:55:05.286Z,53.4
2019-05-13T07:56:19.502Z,48.3
2019-05-13T07:57:33.417Z,48.8
2019-05-13T07:58:47.559Z,48.5
2019-05-13T08:00:01.599Z,50.6
2019-05-13T08:01:15.710Z,48
2019-05-13T08:02:29.778Z,47.9
2019-05-13T08:03:43.922Z,47
2019-05-13T08:04:58.021Z,45.5
2019-05-13T08:06:12.170Z,45.4
2019-05-13T08:07:26.137Z,45.2
2019-05-13T08:09:54.659Z,49.7
2019-05-13T08:11:08.514Z,47.4
2019-05-13T08:12:22.481Z,46.7
2019-05-13T08:13:36.749Z,46.2
2019-05-13T08:14:50.647Z,45.8
2019-05-13T08:16:04.845Z,46.8
2019-05-13T08:17:18.822Z,46.6
2019-05-13T08:18:32.997Z,45.3
2019-05-13T08:19:47.015Z,48
2019-05-13T08:21:01.104Z,45.5
2019-05-13T08:22:15.296Z,43.9
2019-05-13T08:23:29.260Z,45.8
2019-05-13T08:24:43.408Z,43.8
2019-05-13T08:25:57.414Z,44.8
2019-05-13T08:27:11.481Z,44
2019-05-13T08:28:25.678Z,44.4
2019-05-13T08:29:39.635Z,44.8
2019-05-13T08:30:53.792Z,44.9
2019-05-13T08:32:07.884Z,44.6
2019-05-13T08:33:21.916Z,41.8
2019-05-13T08:34:36.014Z,43.8
2019-05-13T08:35:50.010Z,44.8
2019-05-13T08:37:07.413Z,43.9
2019-05-13T08:38:21.919Z,42.5
2019-05-13T08:39:32.315Z,42.2
2019-05-13T08:40:46.389Z,40.7
2019-05-13T08:42:00.539Z,42.3
2019-05-13T08:43:14.414Z,42.8
2019-05-13T08:44:28.446Z,43.4
2019-05-13T08:46:56.729Z,40.9
2019-05-13T08:48:10.674Z,44.6
2019-05-13T08:49:24.777Z,42.6
2019-05-13T08:50:38.731Z,42.6
2019-05-13T08:51:53.157Z,43.3
2019-05-13T08:53:07.030Z,43.5
2019-05-13T08:54:21.037Z,43.5
2019-05-13T08:55:34.982Z,42.5
2019-05-13T08:56:49.039Z,42.6
2019-05-13T08:58:03.302Z,40.4
2019-05-13T08:59:17.225Z,37.2
2019-05-13T09:00:31.295Z,39.2
2019-05-13T09:01:45.267Z,36.2
2019-05-13T09:02:59.477Z,36.3
2019-05-13T09:04:13.886Z,37.1
2019-05-13T09:05:27.658Z,39
2019-05-13T09:06:41.467Z,38.5
2019-05-13T09:07:55.523Z,38.1
2019-05-13T09:09:09.609Z,38.4
2019-05-13T09:10:23.973Z,38.9
2019-05-13T09:11:37.759Z,39.6
2019-05-13T09:12:51.962Z,37.4
2019-05-13T09:14:06.288Z,34.3
2019-05-13T09:15:19.945Z,35.5
2019-05-13T09:16:33.922Z,35.4
2019-05-13T09:17:47.981Z,35.2
2019-05-13T09:19:02.062Z,34.5
2019-05-13T09:20:16.090Z,34
2019-05-13T09:21:30.265Z,33.6
2019-05-13T09:22:44.226Z,31.9
2019-05-13T09:25:12.296Z,33.3
2019-05-13T09:26:26.380Z,34.1
2019-05-13T09:27:40.432Z,30.8
2019-05-13T09:28:54.933Z,31.2
2019-05-13T09:30:08.473Z,32.7
2019-05-13T09:31:23.219Z,33.2
2019-05-13T09:32:36.699Z,31.2
2019-05-13T09:33:50.745Z,33
2019-05-13T09:36:18.776Z,31.3
2019-05-13T09:37:32.758Z,30.4
2019-05-13T09:38:46.832Z,29.3
2019-05-13T09:40:01.131Z,30.4
2019-05-13T09:41:14.987Z,31.2
2019-05-13T09:42:29.065Z,32.9
2019-05-13T09:43:42.997Z,31
2019-05-13T09:44:57.051Z,33.4
2019-05-13T09:46:11.165Z,31.3
2019-05-13T09:47:25.129Z,31
2019-05-13T09:48:39.230Z,33
2019-05-13T09:49:53.273Z,29.7
2019-05-13T09:51:07.410Z,28.4
2019-05-13T09:52:21.390Z,28.6
2019-05-13T09:53:35.322Z,29.9
2019-05-13T09:54:49.353Z,28.4
2019-05-13T09:56:03.457Z,29.4
2019-05-13T09:57:17.403Z,29.7
2019-05-13T09:58:31.915Z,31.6
2019-05-13T09:59:45.496Z,31.7
2019-05-13T10:00:59.589Z,29
2019-05-13T10:02:13.537Z,29.8
2019-05-13T10:03:27.674Z,30.1
2019-05-13T10:04:41.759Z,29.6
2019-05-13T10:05:55.785Z,30.9
2019-05-13T10:07:09.845Z,30
2019-05-13T10:08:23.715Z,29.2
2019-05-13T10:09:38.386Z,30.6
2019-05-13T10:10:51.839Z,31.2
2019-05-13T10:12:05.843Z,29.5
2019-05-13T10:13:19.837Z,31.2
2019-05-13T10:14:33.977Z,30.6
2019-05-13T10:15:47.892Z,29.7
2019-05-13T10:17:02.029Z,31.3
2019-05-13T10:18:15.925Z,29
2019-05-13T10:19:29.949Z,29.1
2019-05-13T10:20:44.049Z,29.5
2019-05-13T10:21:58.003Z,30.8
2019-05-13T10:23:12.140Z,33.1
2019-05-13T10:24:26.007Z,30.7
2019-05-13T10:25:40.072Z,29.3
2019-05-13T10:26:54.067Z,29
2019-05-13T10:28:08.213Z,30.4
2019-05-13T10:29:22.248Z,29
2019-05-13T10:30:36.179Z,28.6
2019-05-13T10:31:50.392Z,30.5
2019-05-13T10:33:04.452Z,29.6
2019-05-13T10:34:18.263Z,31
2019-05-13T10:35:34.830Z,31.5
2019-05-13T10:36:49.429Z,31.2
2019-05-13T10:38:02.875Z,29.2
2019-05-13T10:39:14.338Z,30.5
2019-05-13T10:40:31.740Z,27.3
2019-05-13T10:41:42.374Z,26.6
2019-05-13T10:42:56.422Z,27.6
2019-05-13T10:44:10.514Z,28.5
2019-05-13T10:45:25.030Z,29.7
2019-05-13T10:46:38.568Z,27.1
2019-05-13T10:47:52.610Z,28.6
2019-05-13T10:49:06.734Z,25.9
2019-05-13T10:50:20.685Z,26.9
2019-05-13T10:51:34.591Z,27.3
2019-05-13T10:52:48.741Z,27.8
2019-05-13T10:54:02.619Z,26.7
2019-05-13T10:55:16.735Z,27.6
2019-05-13T10:56:30.761Z,27.7
2019-05-13T10:57:44.731Z,28.8
2019-05-13T10:58:58.845Z,26.5
2019-05-13T11:01:26.848Z,26.6
2019-05-13T11:02:41.435Z,28.4
2019-05-13T11:03:54.879Z,30.6
2019-05-13T11:05:08.946Z,25.8
2019-05-13T11:06:23.002Z,28.4
2019-05-13T11:07:36.990Z,29.7
2019-05-13T11:08:51.025Z,25.4
2019-05-13T11:10:05.437Z,28.6
2019-05-13T11:11:19.097Z,24
2019-05-13T11:12:33.133Z,25.4
2019-05-13T11:13:47.186Z,26.6
2019-05-13T11:15:01.178Z,28.3
2019-05-13T11:16:15.220Z,25.3
2019-05-13T11:17:29.231Z,23.7
2019-05-13T11:18:43.387Z,24.6
2019-05-13T11:19:57.346Z,21.9
2019-05-13T11:21:11.395Z,25.2
2019-05-13T11:23:39.429Z,23
2019-05-13T11:24:53.419Z,23.4
2019-05-13T11:26:07.657Z,25.5
2019-05-13T11:27:21.788Z,26.8
2019-05-13T11:28:35.530Z,28.3
2019-05-13T11:29:49.576Z,24.9
2019-05-13T11:31:03.624Z,25.2
2019-05-13T11:32:17.654Z,23.4
2019-05-13T11:33:31.710Z,25.3
2019-05-13T11:34:45.779Z,22.9
2019-05-13T11:36:02.812Z,23.8
2019-05-13T11:37:13.865Z,23.9
2019-05-13T11:38:27.950Z,22.6
2019-05-13T11:39:41.955Z,23.3
2019-05-13T11:40:55.999Z,23
2019-05-13T11:42:09.951Z,24.9
2019-05-13T11:43:24.220Z,23.8
2019-05-13T11:44:38.018Z,22.4
2019-05-13T11:45:52.214Z,21.1
2019-05-13T11:47:08.351Z,23.2
2019-05-13T11:48:20.145Z,22.4
2019-05-13T11:49:34.324Z,23.1
2019-05-13T11:50:48.249Z,24.2
2019-05-13T11:52:02.264Z,26.8
2019-05-13T11:53:16.312Z,22.6
2019-05-13T11:54:30.366Z,22.7
2019-05-13T11:55:44.505Z,23.4
2019-05-13T11:56:58.650Z,28
2019-05-13T11:58:12.658Z,23.5
2019-05-13T11:59:26.731Z,25
2019-05-13T12:00:40.585Z,24.7
2019-05-13T12:01:54.853Z,24.7
2019-05-13T12:04:23.023Z,23.1
2019-05-13T12:05:36.909Z,24.9
2019-05-13T12:08:04.855Z,25
2019-05-13T12:09:19.219Z,27.7
2019-05-13T12:10:37.937Z,23.9
2019-05-13T12:11:47.005Z,25.5
2019-05-13T12:13:01.026Z,25.3
2019-05-13T12:14:15.079Z,28.2
2019-05-13T12:15:29.124Z,24.9
2019-05-13T12:16:43.172Z,26.6
2019-05-13T12:17:57.303Z,26
2019-05-13T12:19:11.261Z,27
2019-05-13T12:20:25.275Z,27.5
2019-05-13T12:21:39.376Z,25.6
2019-05-13T12:22:53.445Z,25.7
2019-05-13T12:24:13.909Z,26.3
2019-05-13T12:25:21.597Z,27.7
2019-05-13T12:26:35.579Z,24.8
2019-05-13T12:27:49.608Z,29.4
2019-05-13T12:29:06.792Z,24.7
2019-05-13T12:30:21.233Z,26.3
2019-05-13T12:31:31.949Z,25.6
2019-05-13T12:32:45.782Z,25.2
2019-05-13T12:34:00.124Z,26.7
2019-05-13T12:35:13.889Z,28.6
2019-05-13T12:36:28.031Z,26.6
2019-05-13T12:37:42.024Z,26.7
2019-05-13T12:38:56.109Z,26.7
2019-05-13T12:40:11.308Z,27
2019-05-13T12:41:24.254Z,24.4
2019-05-13T12:42:38.182Z,28.6
2019-05-13T12:45:06.381Z,24.9
2019-05-13T12:46:20.494Z,27.1
2019-05-13T12:47:34.403Z,26.9
2019-05-13T12:48:48.469Z,26.4
2019-05-13T12:50:02.589Z,25.4
2019-05-13T12:51:16.571Z,25.5
2019-05-13T12:53:44.744Z,23.9
2019-05-13T12:54:58.773Z,22.6
2019-05-13T12:56:12.968Z,23.4
2019-05-13T12:57:26.900Z,21.5
2019-05-13T12:58:41.004Z,22.5
2019-05-13T12:59:55.031Z,24.7
2019-05-13T13:01:09.058Z,23.1
2019-05-13T13:02:23.227Z,26.8
2019-05-13T13:03:37.179Z,26.3
2019-05-13T13:04:51.318Z,25.4
2019-05-13T13:06:05.340Z,23.4
2019-05-13T13:07:19.371Z,25.1
2019-05-13T13:08:33.469Z,24.7
2019-05-13T13:09:48.798Z,22.5
2019-05-13T13:11:05.819Z,22.8
2019-05-13T13:12:15.618Z,25.5
2019-05-13T13:13:29.668Z,24.8
2019-05-13T13:14:43.806Z,24.9
2019-05-13T13:15:57.786Z,22.2
2019-05-13T13:17:11.961Z,21.8
2019-05-13T13:18:25.926Z,21.8
2019-05-13T13:19:40.055Z,22.2
2019-05-13T13:20:54.060Z,22.4
2019-05-13T13:22:08.221Z,23
2019-05-13T13:23:22.219Z,25.5
2019-05-13T13:24:36.655Z,24.9
2019-05-13T13:25:50.395Z,22.4
2019-05-13T13:27:04.653Z,21.9
2019-05-13T13:28:18.534Z,21.9
2019-05-13T13:29:32.588Z,23.1
2019-05-13T13:30:46.554Z,23.3
2019-05-13T13:32:00.610Z,23.8
2019-05-13T13:33:14.672Z,24.9
2019-05-13T13:34:28.744Z,25.2
2019-05-13T13:35:42.908Z,23.7
2019-05-13T13:36:56.916Z,21.6
2019-05-13T13:38:10.921Z,23.3
2019-05-13T13:39:25.052Z,22.1
2019-05-13T13:40:41.571Z,23.2
2019-05-13T13:43:07.228Z,23.8
2019-05-13T13:44:21.319Z,23.2
2019-05-13T13:45:35.385Z,25
2019-05-13T13:46:49.678Z,23.9
2019-05-13T13:48:03.497Z,23.3
2019-05-13T13:49:18.845Z,23.4
2019-05-13T13:50:31.750Z,24.9
2019-05-13T13:51:45.772Z,23
2019-05-13T13:52:59.824Z,24.8
2019-05-13T13:55:28.258Z,25.1
2019-05-13T13:56:42.158Z,25.4
2019-05-13T13:57:56.232Z,25.1
2019-05-13T13:59:10.189Z,24.6
2019-05-13T14:00:24.396Z,24.7
2019-05-13T14:01:38.443Z,23.2
2019-05-13T14:02:52.438Z,25
2019-05-13T14:04:06.594Z,24.2
2019-05-13T14:06:34.741Z,25.2
2019-05-13T14:07:48.688Z,23.9
2019-05-13T14:09:02.727Z,26.5
2019-05-13T14:10:17.305Z,27.1
2019-05-13T14:11:30.892Z,22.5
2019-05-13T14:12:45.100Z,23.2
2019-05-13T14:13:59.004Z,24.6
2019-05-13T14:15:13.091Z,25.4
2019-05-13T14:16:27.153Z,23.9
2019-05-13T14:17:41.275Z,26.4
2019-05-13T14:20:09.443Z,24.9
2019-05-13T14:21:23.421Z,23.8
2019-05-13T14:22:37.587Z,23.9
2019-05-13T14:23:51.699Z,24.1
2019-05-13T14:25:05.820Z,25.2
2019-05-13T14:26:19.753Z,26.1
2019-05-13T14:27:33.838Z,24.7
2019-05-13T14:28:47.904Z,24.9
2019-05-13T14:30:07.282Z,25.5
2019-05-13T14:31:16.040Z,24.9
2019-05-13T14:32:30.199Z,27.6
2019-05-13T14:33:49.209Z,23.9
2019-05-13T14:35:03.598Z,26.8
2019-05-13T14:36:12.384Z,23.6
2019-05-13T14:37:26.525Z,24.1
2019-05-13T14:38:40.537Z,25
2019-05-13T14:39:55.335Z,23.8
2019-05-13T14:41:08.795Z,27.8
2019-05-13T14:42:22.867Z,25.3
2019-05-13T14:43:36.831Z,27.3
2019-05-13T14:44:50.974Z,26.2
2019-05-13T14:46:05.021Z,22.5
2019-05-13T14:47:19.063Z,23.9
2019-05-13T14:48:33.159Z,24.6
2019-05-13T14:49:47.222Z,24.9
2019-05-13T14:51:01.287Z,22.7
2019-05-13T14:52:15.364Z,23.9
2019-05-13T14:53:29.571Z,24.5
2019-05-13T14:54:43.560Z,26.6
2019-05-13T14:55:57.614Z,25.3
2019-05-13T14:57:11.683Z,23.1
2019-05-13T14:58:25.741Z,24.1
2019-05-13T14:59:39.846Z,23.1
2019-05-13T15:00:53.901Z,23.9
2019-05-13T15:02:10.543Z,26.3
2019-05-13T15:03:23.918Z,24.6
2019-05-13T15:05:50.269Z,24
2019-05-13T15:07:04.274Z,23.1
2019-05-13T15:08:18.463Z,25.2
2019-05-13T15:09:32.443Z,23.5
2019-05-13T15:10:46.518Z,23.2
2019-05-13T15:12:00.596Z,23.9
2019-05-13T15:13:14.790Z,22.1
2019-05-13T15:14:28.744Z,23.2
2019-05-13T15:15:42.852Z,23
2019-05-13T15:16:56.913Z,24.3
2019-05-13T15:18:10.995Z,24.4
2019-05-13T15:19:25.161Z,24.4
2019-05-13T15:20:39.162Z,23.2
2019-05-13T15:21:53.243Z,24.4
2019-05-13T15:23:07.326Z,24.1
2019-05-13T15:24:21.550Z,24.8
2019-05-13T15:25:35.543Z,25.5
2019-05-13T15:26:49.679Z,24.4
2019-05-13T15:28:03.714Z,23.2
2019-05-13T15:29:17.902Z,24.4
2019-05-13T15:30:31.864Z,23.7
2019-05-13T15:31:45.937Z,25.5
2019-05-13T15:34:14.246Z,23
2019-05-13T15:35:28.270Z,24
2019-05-13T15:36:42.338Z,25.4
2019-05-13T15:37:56.449Z,21.5
2019-05-13T15:39:10.513Z,24.3
2019-05-13T15:40:24.854Z,22.6
2019-05-13T15:41:38.689Z,22.3
2019-05-13T15:42:52.958Z,22.5
2019-05-13T15:44:06.962Z,24.1
2019-05-13T15:45:20.987Z,24
2019-05-13T15:46:35.074Z,23.8
2019-05-13T15:47:49.206Z,24.9
2019-05-13T15:49:03.284Z,25.4
2019-05-13T15:50:17.373Z,24.6
2019-05-13T15:51:31.492Z,23.9
2019-05-13T15:52:45.552Z,24.4
2019-05-13T15:53:59.637Z,23.6
2019-05-13T15:55:13.742Z,23.7
2019-05-13T15:56:27.841Z,24.9
2019-05-13T15:57:42.005Z,22.5
2019-05-13T15:58:56.033Z,23.5
2019-05-13T16:00:10.495Z,25.8
2019-05-13T16:01:24.248Z,26.2
2019-05-13T16:02:42.687Z,25.8
2019-05-13T16:03:52.445Z,26.5
2019-05-13T16:05:06.735Z,25.7
2019-05-13T16:06:21.254Z,27.6
2019-05-13T16:07:34.720Z,26.7
2019-05-13T16:08:48.840Z,27.1
2019-05-13T16:10:04.480Z,26.2
2019-05-13T16:11:17.072Z,26.4
2019-05-13T16:12:31.284Z,28.6
2019-05-13T16:13:45.237Z,28.7
2019-05-13T16:14:59.468Z,28.6
2019-05-13T16:16:13.473Z,29.5
2019-05-13T16:17:27.581Z,26.7
2019-05-13T16:18:41.849Z,27.4
2019-05-13T16:19:55.769Z,27.5
2019-05-13T16:21:09.938Z,28.5
2019-05-13T16:22:24.014Z,26.8
2019-05-13T16:23:38.092Z,28.4
2019-05-13T16:24:52.323Z,28.4
2019-05-13T16:26:06.305Z,28.1
2019-05-13T16:27:20.543Z,28.5
2019-05-13T16:28:34.558Z,27.7
2019-05-13T16:29:48.570Z,29.4
2019-05-13T16:31:06.519Z,27.6
2019-05-13T16:32:16.819Z,27.3
2019-05-13T16:34:45.090Z,28.4
2019-05-13T16:35:59.272Z,28.2
2019-05-13T16:37:13.348Z,28.2
2019-05-13T16:38:27.322Z,29.6
2019-05-13T16:39:41.469Z,28.5
2019-05-13T16:40:55.611Z,28.3
2019-05-13T16:42:09.689Z,29.9
2019-05-13T16:43:23.751Z,28.5
2019-05-13T16:44:37.960Z,29.4
2019-05-13T16:45:52.070Z,29.6
2019-05-13T16:47:06.861Z,31.2
2019-05-13T16:48:20.212Z,30.2
2019-05-13T16:49:34.303Z,29.7
2019-05-13T16:50:48.475Z,31.7
2019-05-13T16:52:02.570Z,28.7
2019-05-13T16:53:16.657Z,29.5
2019-05-13T16:55:44.908Z,30.4
2019-05-13T16:56:59.196Z,31.1
2019-05-13T16:58:13.164Z,30.6
2019-05-13T16:59:27.290Z,30.5
2019-05-13T17:00:41.425Z,30.5
2019-05-13T17:01:55.613Z,29.8
2019-05-13T17:03:09.719Z,30.9
2019-05-13T17:04:23.778Z,30.6
2019-05-13T17:05:37.941Z,30.8